Time;durP1;ratioP1;P1;durP2;ratioP2;P2;SDS_P1;SDS_P2;PMS_P1;PMS_P2;Temp;Humidity;BMP_temperature;BMP_pressure;BME280_temperature;BME280_humidity;BME280_pressure;Samples;Min_cycle;Max_cycle;Signal;HPM_P1;HPM_P2
2022/11/25 00:01:05;;;;;;;8.52;5.95;;;;;;;;;;5115689;28;20043;-70
2022/11/25 00:03:34;;;;;;;8.70;5.80;;;;;;;;;;5115893;28;20043;-71
2022/11/25 00:06:31;;;;;;;9.43;6.53;;;;;;;;;;5115700;28;20043;-71
2022/11/25 00:08:59;;;;;;;7.05;5.25;;;;;;;;;;5077782;28;20043;-70
2022/11/25 00:11:27;;;;;;;8.85;5.85;;;;;;;;;;5115733;28;20054;-70
2022/11/25 00:13:56;;;;;;;8.52;6.22;;;;;;;;;;5097777;28;20059;-71
2022/11/25 00:16:25;;;;;;;8.75;6.00;;;;;;;;;;5115339;28;20047;-70
2022/11/25 00:18:53;;;;;;;8.57;5.97;;;;;;;;;;5113691;28;20096;-70
2022/11/25 00:21:23;;;;;;;9.52;6.47;;;;;;;;;;5097410;28;20036;-70
2022/11/25 00:23:54;;;;;;;10.75;6.68;;;;;;;;;;5115451;28;20039;-70
2022/11/25 00:26:22;;;;;;;9.20;6.40;;;;;;;;;;5115427;28;20541;-70
2022/11/25 00:28:50;;;;;;;8.52;6.10;;;;;;;;;;5096759;28;20048;-70
2022/11/25 00:31:20;;;;;;;8.55;6.35;;;;;;;;;;5097094;28;20043;-70
2022/11/25 00:33:48;;;;;;;7.95;6.10;;;;;;;;;;5097023;28;20063;-71
2022/11/25 00:36:22;;;;;;;8.05;5.75;;;;;;;;;;5115245;28;20481;-70
2022/11/25 00:38:57;;;;;;;8.27;6.53;;;;;;;;;;5096840;28;20134;-70
2022/11/25 00:46:59;;;;;;;7.95;5.95;;;;;;;;;;5096687;28;20048;-70
2022/11/25 00:49:26;;;;;;;7.25;5.70;;;;;;;;;;5096869;28;20400;-70
2022/11/25 00:51:54;;;;;;;7.63;5.65;;;;;;;;;;5114636;28;20046;-70
2022/11/25 00:54:21;;;;;;;9.18;5.72;;;;;;;;;;5115179;28;20052;-70
2022/11/25 00:56:49;;;;;;;7.72;5.47;;;;;;;;;;5096533;28;20036;-70
2022/11/25 00:59:17;;;;;;;9.00;5.68;;;;;;;;;;5096524;28;20443;-70
2022/11/25 01:01:45;;;;;;;7.55;5.60;;;;;;;;;;5096303;28;20043;-70
2022/11/25 01:04:13;;;;;;;8.32;5.05;;;;;;;;;;5096530;28;20079;-70
2022/11/25 01:06:40;;;;;;;6.25;4.82;;;;;;;;;;5096300;28;20449;-70
2022/11/25 01:09:08;;;;;;;7.97;5.55;;;;;;;;;;5096266;28;20044;-70
2022/11/25 01:11:38;;;;;;;7.45;5.40;;;;;;;;;;5096150;28;20127;-70
2022/11/25 01:14:05;;;;;;;8.35;5.00;;;;;;;;;;5096333;28;20045;-70
2022/11/25 01:16:33;;;;;;;6.45;4.80;;;;;;;;;;5096101;28;20058;-70
2022/11/25 01:19:01;;;;;;;7.55;5.22;;;;;;;;;;5096320;28;20131;-70
2022/11/25 01:21:32;;;;;;;8.90;5.35;;;;;;;;;;5114390;28;20050;-70
2022/11/25 01:24:01;;;;;;;7.43;4.80;;;;;;;;;;5096091;28;20040;-70
2022/11/25 01:26:29;;;;;;;6.70;4.70;;;;;;;;;;5079245;28;20036;-70
2022/11/25 01:28:57;;;;;;;6.70;4.60;;;;;;;;;;5095607;28;20079;-70
2022/11/25 01:31:26;;;;;;;6.50;4.95;;;;;;;;;;5114101;28;20035;-70
2022/11/25 01:33:55;;;;;;;7.82;4.90;;;;;;;;;;5114238;28;20089;-70
2022/11/25 01:36:23;;;;;;;7.47;5.10;;;;;;;;;;5114160;28;20525;-70
2022/11/25 01:38:55;;;;;;;6.80;5.35;;;;;;;;;;5095730;28;20139;-70
2022/11/25 01:41:23;;;;;;;8.57;5.22;;;;;;;;;;5095447;28;20558;-70
2022/11/25 01:44:09;;;;;;;8.50;5.00;;;;;;;;;;5095592;28;20089;-70
2022/11/25 01:46:40;;;;;;;6.63;4.78;;;;;;;;;;5113898;28;20040;-71
2022/11/25 01:49:10;;;;;;;6.57;4.90;;;;;;;;;;5095585;28;20039;-70
2022/11/25 01:52:06;;;;;;;7.60;5.32;;;;;;;;;;5095607;28;20047;-70
2022/11/25 01:54:46;;;;;;;6.22;4.80;;;;;;;;;;5074906;28;20489;-70
2022/11/25 01:57:17;;;;;;;7.93;5.30;;;;;;;;;;5095524;28;20038;-70
2022/11/25 01:59:47;;;;;;;7.00;5.20;;;;;;;;;;5095439;28;20044;-70
2022/11/25 02:02:15;;;;;;;7.57;4.95;;;;;;;;;;5095384;28;20130;-70
2022/11/25 02:04:46;;;;;;;8.45;5.13;;;;;;;;;;5095383;28;20070;-70
2022/11/25 02:07:17;;;;;;;8.07;5.45;;;;;;;;;;5113275;28;20039;-69
2022/11/25 02:09:45;;;;;;;7.25;5.50;;;;;;;;;;5113412;28;20050;-70
2022/11/25 02:12:14;;;;;;;8.32;5.45;;;;;;;;;;5078446;28;20043;-70
2022/11/25 02:14:41;;;;;;;7.13;5.05;;;;;;;;;;5095027;28;20044;-70
2022/11/25 02:17:11;;;;;;;7.13;5.13;;;;;;;;;;5113459;28;20038;-70
2022/11/25 02:19:46;;;;;;;7.50;5.18;;;;;;;;;;5095300;28;20508;-71
2022/11/25 02:22:19;;;;;;;7.37;4.80;;;;;;;;;;5095066;28;20116;-70
2022/11/25 02:24:50;;;;;;;7.30;4.90;;;;;;;;;;5095048;28;20047;-70
2022/11/25 02:27:18;;;;;;;9.02;5.22;;;;;;;;;;5094945;28;20054;-70
2022/11/25 02:29:48;;;;;;;7.90;5.13;;;;;;;;;;5095058;28;20054;-70
2022/11/25 02:32:15;;;;;;;8.20;5.55;;;;;;;;;;5094843;28;20497;-71
2022/11/25 02:34:47;;;;;;;8.43;5.22;;;;;;;;;;5094821;28;20044;-70
2022/11/25 02:37:17;;;;;;;7.43;5.10;;;;;;;;;;5094947;28;20100;-70
2022/11/25 02:39:45;;;;;;;8.15;5.05;;;;;;;;;;5113156;28;20032;-70
2022/11/25 02:42:14;;;;;;;6.55;4.75;;;;;;;;;;5094025;28;20390;-70
2022/11/25 02:44:45;;;;;;;7.80;5.45;;;;;;;;;;5094872;28;20044;-70
2022/11/25 02:47:12;;;;;;;8.60;5.40;;;;;;;;;;5094782;28;20497;-70
2022/11/25 02:49:40;;;;;;;9.02;6.28;;;;;;;;;;5094820;28;20412;-70
2022/11/25 02:52:09;;;;;;;9.75;5.40;;;;;;;;;;5094648;28;20040;-70
2022/11/25 02:54:37;;;;;;;10.23;6.18;;;;;;;;;;5094827;28;20039;-70
2022/11/25 02:57:04;;;;;;;8.65;5.97;;;;;;;;;;5094732;28;20043;-70
2022/11/25 02:59:34;;;;;;;7.90;5.57;;;;;;;;;;5094659;28;20040;-70
2022/11/25 03:02:01;;;;;;;8.45;6.15;;;;;;;;;;5094492;28;20493;-70
2022/11/25 03:04:29;;;;;;;9.73;5.78;;;;;;;;;;5094500;28;20063;-70
2022/11/25 03:06:57;;;;;;;8.00;5.97;;;;;;;;;;5094363;28;20101;-70
2022/11/25 03:09:24;;;;;;;8.13;5.55;;;;;;;;;;5094467;28;20050;-71
2022/11/25 03:14:39;;;;;;;8.68;5.90;;;;;;;;;;5094290;28;20040;-70
2022/11/25 03:17:06;;;;;;;9.27;5.80;;;;;;;;;;5094350;28;20092;-70
2022/11/25 03:19:34;;;;;;;7.80;5.85;;;;;;;;;;5094519;28;20042;-70
2022/11/25 03:22:01;;;;;;;10.05;5.72;;;;;;;;;;5112584;28;20040;-70
2022/11/25 03:24:29;;;;;;;8.98;6.35;;;;;;;;;;5112545;28;20040;-70
2022/11/25 03:26:56;;;;;;;9.52;6.25;;;;;;;;;;5094434;28;20582;-71
2022/11/25 03:29:24;;;;;;;9.55;6.57;;;;;;;;;;5094358;28;20089;-70
2022/11/25 03:31:53;;;;;;;8.63;6.40;;;;;;;;;;5094247;28;20050;-70
2022/11/25 03:34:21;;;;;;;9.18;6.43;;;;;;;;;;5094350;28;20093;-71
2022/11/25 03:36:49;;;;;;;10.65;6.43;;;;;;;;;;5094319;28;20708;-71
2022/11/25 03:39:17;;;;;;;8.88;6.30;;;;;;;;;;5094394;28;20114;-70
2022/11/25 03:41:45;;;;;;;9.07;6.57;;;;;;;;;;5077672;28;20035;-70
2022/11/25 03:44:13;;;;;;;13.15;7.30;;;;;;;;;;5094279;28;20046;-70
2022/11/25 03:46:41;;;;;;;8.55;6.60;;;;;;;;;;5094201;28;20046;-71
2022/11/25 03:49:08;;;;;;;9.50;6.90;;;;;;;;;;5094165;28;20055;-70
2022/11/25 03:51:36;;;;;;;9.20;6.43;;;;;;;;;;5077546;28;20036;-70
2022/11/25 03:54:04;;;;;;;10.05;7.00;;;;;;;;;;5097908;28;20542;-70
2022/11/25 03:56:49;;;;;;;9.95;7.47;;;;;;;;;;5097903;28;20036;-70
2022/11/25 03:59:17;;;;;;;10.70;6.97;;;;;;;;;;5097791;28;20097;-70
2022/11/25 04:01:44;;;;;;;10.63;7.57;;;;;;;;;;5116130;28;20451;-71
2022/11/25 04:04:13;;;;;;;12.88;7.68;;;;;;;;;;5097576;28;20050;-71
2022/11/25 04:06:40;;;;;;;10.13;7.10;;;;;;;;;;5080771;28;20507;-71
2022/11/25 04:09:08;;;;;;;12.80;7.60;;;;;;;;;;5080498;28;20048;-71
2022/11/25 04:14:23;;;;;;;10.90;7.30;;;;;;;;;;5086011;28;20055;-71
2022/11/25 04:16:52;;;;;;;11.77;8.10;;;;;;;;;;5076785;28;20051;-71
2022/11/25 04:19:20;;;;;;;12.63;8.13;;;;;;;;;;5076849;28;20101;-71
2022/11/25 04:21:47;;;;;;;17.23;8.68;;;;;;;;;;5076874;28;20093;-71
2022/11/25 04:24:19;;;;;;;12.07;7.95;;;;;;;;;;5076836;28;20460;-71
2022/11/25 04:26:47;;;;;;;11.50;8.02;;;;;;;;;;5060643;28;20567;-71
2022/11/25 04:29:14;;;;;;;10.40;7.75;;;;;;;;;;5076736;28;20060;-71
2022/11/25 04:31:43;;;;;;;11.05;8.25;;;;;;;;;;5076597;28;20061;-71
2022/11/25 04:34:11;;;;;;;15.85;8.68;;;;;;;;;;5076655;28;20501;-71
2022/11/25 04:36:39;;;;;;;11.82;8.90;;;;;;;;;;5076669;28;20044;-71
2022/11/25 04:39:06;;;;;;;13.73;9.18;;;;;;;;;;5094685;28;20379;-71
2022/11/25 04:41:34;;;;;;;13.45;8.45;;;;;;;;;;5084883;28;20066;-71
2022/11/25 04:44:02;;;;;;;12.52;8.13;;;;;;;;;;5096832;28;20039;-71
2022/11/25 04:46:36;;;;;;;15.05;8.52;;;;;;;;;;5115067;28;20106;-71
2022/11/25 04:49:05;;;;;;;15.63;8.65;;;;;;;;;;5096622;28;20088;-71
2022/11/25 04:51:32;;;;;;;13.52;9.15;;;;;;;;;;5096684;28;20086;-71
2022/11/25 04:54:03;;;;;;;13.00;8.93;;;;;;;;;;5095919;28;20552;-71
2022/11/25 04:56:33;;;;;;;10.85;8.63;;;;;;;;;;5096537;28;20044;-71
2022/11/25 05:01:47;;;;;;;12.55;8.75;;;;;;;;;;5096437;28;20042;-72
2022/11/25 05:04:41;;;;;;;11.38;8.35;;;;;;;;;;5109658;28;20529;-75
2022/11/25 05:07:11;;;;;;;13.68;8.75;;;;;;;;;;5080100;28;20066;-75
2022/11/25 05:09:39;;;;;;;10.40;8.35;;;;;;;;;;5095956;28;20039;-80
2022/11/25 05:12:18;;;;;;;15.68;8.30;;;;;;;;;;5096125;28;20043;-74
2022/11/25 05:14:47;;;;;;;12.27;7.82;;;;;;;;;;5079369;28;20074;-75
2022/11/25 05:17:16;;;;;;;10.20;7.72;;;;;;;;;;5096111;28;20071;-73
2022/11/25 05:19:44;;;;;;;11.10;8.00;;;;;;;;;;5114281;28;20035;-74
2022/11/25 05:22:14;;;;;;;12.63;7.43;;;;;;;;;;5095919;28;20130;-73
2022/11/25 05:24:43;;;;;;;11.88;7.25;;;;;;;;;;5095956;28;20047;-73
2022/11/25 05:27:12;;;;;;;11.07;7.93;;;;;;;;;;5095826;28;20085;-76
2022/11/25 05:29:40;;;;;;;11.13;8.25;;;;;;;;;;5095479;28;20100;-73
2022/11/25 05:32:09;;;;;;;12.98;8.32;;;;;;;;;;5095592;28;20074;-73
2022/11/25 05:34:36;;;;;;;12.45;8.25;;;;;;;;;;5114015;28;20039;-73
2022/11/25 05:37:06;;;;;;;14.57;9.02;;;;;;;;;;5095627;28;20069;-73
2022/11/25 05:39:35;;;;;;;12.93;8.55;;;;;;;;;;5095510;28;20058;-73
2022/11/25 05:42:18;;;;;;;12.07;8.20;;;;;;;;;;5114176;28;20040;-73
2022/11/25 05:44:45;;;;;;;12.77;8.35;;;;;;;;;;5095392;28;20070;-74
2022/11/25 05:47:13;;;;;;;12.88;8.23;;;;;;;;;;5078934;28;20063;-74
2022/11/25 05:49:41;;;;;;;13.30;8.10;;;;;;;;;;5095472;28;20052;-76
2022/11/25 05:52:09;;;;;;;13.68;8.13;;;;;;;;;;5095404;28;20036;-74
2022/11/25 05:54:46;;;;;;;14.30;8.07;;;;;;;;;;5095256;28;20071;-76
2022/11/25 05:57:13;;;;;;;16.38;8.10;;;;;;;;;;5113871;28;20389;-75
2022/11/25 05:59:51;;;;;;;14.77;9.20;;;;;;;;;;5093599;28;20039;-75
2022/11/25 06:02:41;;;;;;;12.82;9.27;;;;;;;;;;5113680;28;20459;-75
2022/11/25 06:05:12;;;;;;;15.13;9.80;;;;;;;;;;5079291;28;20059;-75
2022/11/25 06:07:40;;;;;;;16.20;9.25;;;;;;;;;;5095354;28;20086;-75
2022/11/25 06:10:08;;;;;;;12.07;8.15;;;;;;;;;;5095251;28;20053;-75
2022/11/25 06:12:38;;;;;;;16.40;10.15;;;;;;;;;;5095242;28;20390;-75
2022/11/25 06:15:05;;;;;;;18.27;10.07;;;;;;;;;;5094966;28;20117;-75
2022/11/25 06:17:35;;;;;;;11.63;7.57;;;;;;;;;;5095022;28;20046;-75
2022/11/25 06:20:11;;;;;;;8.43;6.15;;;;;;;;;;5095097;28;20050;-75
2022/11/25 06:22:39;;;;;;;13.30;7.32;;;;;;;;;;5095178;28;20044;-75
2022/11/25 06:25:06;;;;;;;13.48;9.25;;;;;;;;;;5095162;28;20089;-75
2022/11/25 06:27:36;;;;;;;14.45;10.13;;;;;;;;;;5095007;28;20134;-75
2022/11/25 06:30:24;;;;;;;13.45;8.13;;;;;;;;;;5113456;28;20400;-75
2022/11/25 06:33:11;;;;;;;17.83;10.90;;;;;;;;;;5084132;28;20040;-75
2022/11/25 06:35:42;;;;;;;18.00;10.52;;;;;;;;;;5094841;28;20142;-75
2022/11/25 06:38:10;;;;;;;14.73;9.05;;;;;;;;;;5095348;28;20481;-75
2022/11/25 06:40:37;;;;;;;19.38;9.55;;;;;;;;;;5113348;28;20035;-75
2022/11/25 06:43:05;;;;;;;16.60;10.10;;;;;;;;;;5113036;28;20046;-75
2022/11/25 06:45:32;;;;;;;17.73;10.02;;;;;;;;;;5112972;28;20047;-75
2022/11/25 06:48:00;;;;;;;14.75;8.15;;;;;;;;;;5094762;28;20093;-75
2022/11/25 06:50:27;;;;;;;11.27;7.03;;;;;;;;;;5094762;28;20051;-75
2022/11/25 06:52:55;;;;;;;17.58;9.40;;;;;;;;;;5113006;28;20043;-75
2022/11/25 06:55:22;;;;;;;15.48;10.00;;;;;;;;;;5113014;28;20532;-75
2022/11/25 06:57:50;;;;;;;16.85;9.45;;;;;;;;;;5112793;28;20093;-75
2022/11/25 07:00:22;;;;;;;17.55;11.27;;;;;;;;;;5113074;28;20039;-75
2022/11/25 07:02:49;;;;;;;14.73;8.43;;;;;;;;;;5112931;28;20047;-75
2022/11/25 07:05:17;;;;;;;16.63;8.73;;;;;;;;;;5112803;28;20067;-75
2022/11/25 07:07:44;;;;;;;15.27;8.48;;;;;;;;;;5112790;28;20083;-75
2022/11/25 07:10:12;;;;;;;17.05;11.30;;;;;;;;;;5112734;28;20386;-75
2022/11/25 07:12:39;;;;;;;18.95;11.73;;;;;;;;;;5112725;28;20067;-75
2022/11/25 07:15:07;;;;;;;14.00;8.48;;;;;;;;;;5112393;28;20087;-75
2022/11/25 07:17:34;;;;;;;14.45;8.25;;;;;;;;;;5112744;28;20130;-75
2022/11/25 07:20:02;;;;;;;19.85;12.52;;;;;;;;;;5094433;28;20558;-75
2022/11/25 07:22:30;;;;;;;22.73;14.85;;;;;;;;;;5112616;28;20481;-75
2022/11/25 07:24:58;;;;;;;19.38;12.60;;;;;;;;;;5112922;28;20040;-75
2022/11/25 07:27:25;;;;;;;15.90;9.77;;;;;;;;;;5113831;28;20044;-75
2022/11/25 07:29:52;;;;;;;9.05;6.30;;;;;;;;;;5116409;28;20115;-75
2022/11/25 07:32:40;;;;;;;11.98;6.50;;;;;;;;;;5116648;28;20115;-74
2022/11/25 07:35:07;;;;;;;9.13;6.05;;;;;;;;;;5116446;28;20040;-76
2022/11/25 07:37:35;;;;;;;8.55;6.10;;;;;;;;;;5098387;28;20582;-75
2022/11/25 07:40:02;;;;;;;10.80;6.05;;;;;;;;;;5098176;28;20055;-75
2022/11/25 07:42:30;;;;;;;10.57;5.88;;;;;;;;;;5116242;28;20043;-75
2022/11/25 07:44:57;;;;;;;10.77;6.25;;;;;;;;;;5116241;28;20451;-75
2022/11/25 07:47:45;;;;;;;11.68;7.95;;;;;;;;;;5115425;28;20051;-75
2022/11/25 07:50:12;;;;;;;14.05;10.18;;;;;;;;;;5116451;28;20087;-75
2022/11/25 07:52:40;;;;;;;10.23;6.32;;;;;;;;;;5116475;28;20031;-75
2022/11/25 07:55:08;;;;;;;10.27;6.30;;;;;;;;;;5116274;28;20040;-75
2022/11/25 07:57:35;;;;;;;11.07;6.40;;;;;;;;;;5116004;28;20032;-76
2022/11/25 08:00:04;;;;;;;7.93;5.65;;;;;;;;;;5115869;28;20063;-75
2022/11/25 08:02:37;;;;;;;9.77;6.45;;;;;;;;;;5115927;28;20162;-75
2022/11/25 08:05:05;;;;;;;9.07;6.10;;;;;;;;;;5116245;28;20054;-75
2022/11/25 08:07:33;;;;;;;8.32;5.80;;;;;;;;;;5115934;28;20047;-75
2022/11/25 08:10:03;;;;;;;9.95;5.63;;;;;;;;;;5115748;28;20374;-75
2022/11/25 08:12:33;;;;;;;8.88;6.18;;;;;;;;;;5115651;28;20108;-75
2022/11/25 08:15:01;;;;;;;7.45;5.40;;;;;;;;;;5115540;28;20059;-75
2022/11/25 08:17:28;;;;;;;8.93;5.88;;;;;;;;;;5115692;28;20109;-75
2022/11/25 08:19:56;;;;;;;8.25;6.18;;;;;;;;;;5115687;28;20047;-75
2022/11/25 08:22:23;;;;;;;12.00;7.50;;;;;;;;;;5115592;28;20064;-75
2022/11/25 08:24:51;;;;;;;18.02;11.35;;;;;;;;;;5115549;28;20044;-75
2022/11/25 08:27:18;;;;;;;7.90;5.97;;;;;;;;;;5115715;28;20459;-74
2022/11/25 08:29:46;;;;;;;17.67;10.32;;;;;;;;;;5097394;28;20441;-75
2022/11/25 08:32:13;;;;;;;10.63;6.43;;;;;;;;;;5115303;28;20520;-75
2022/11/25 08:34:42;;;;;;;8.65;5.93;;;;;;;;;;5097366;28;20039;-75
2022/11/25 08:37:11;;;;;;;7.85;6.07;;;;;;;;;;5097079;28;20046;-74
2022/11/25 08:39:38;;;;;;;9.13;6.03;;;;;;;;;;5095919;28;20070;-75
2022/11/25 08:42:22;;;;;;;10.50;6.28;;;;;;;;;;5096949;28;20453;-75
2022/11/25 08:44:54;;;;;;;8.02;6.03;;;;;;;;;;5115224;28;20555;-75
2022/11/25 08:47:22;;;;;;;10.80;6.50;;;;;;;;;;5097132;28;20467;-74
2022/11/25 08:49:50;;;;;;;8.75;6.47;;;;;;;;;;5114944;28;20065;-75
2022/11/25 08:52:18;;;;;;;10.90;6.05;;;;;;;;;;5114945;28;20043;-75
2022/11/25 08:54:46;;;;;;;10.70;6.65;;;;;;;;;;5096698;28;20043;-75
2022/11/25 08:57:13;;;;;;;8.75;6.25;;;;;;;;;;5114795;28;20051;-75
2022/11/25 08:59:41;;;;;;;12.13;7.68;;;;;;;;;;5114811;28;20089;-75
2022/11/25 09:02:11;;;;;;;11.25;7.45;;;;;;;;;;5115029;28;20036;-75
2022/11/25 09:04:39;;;;;;;14.85;8.45;;;;;;;;;;5114842;28;20042;-75
2022/11/25 09:07:06;;;;;;;10.45;7.65;;;;;;;;;;5096489;28;20047;-75
2022/11/25 09:09:34;;;;;;;13.25;8.63;;;;;;;;;;5114510;28;20047;-75
2022/11/25 09:12:02;;;;;;;13.05;8.88;;;;;;;;;;5114687;28;20031;-75
2022/11/25 09:14:29;;;;;;;12.80;8.65;;;;;;;;;;5114420;28;20036;-75
2022/11/25 09:16:57;;;;;;;12.40;8.38;;;;;;;;;;5114529;28;20120;-75
2022/11/25 09:19:24;;;;;;;12.85;9.00;;;;;;;;;;5114507;28;20071;-75
2022/11/25 09:21:52;;;;;;;14.15;9.88;;;;;;;;;;5114457;28;20548;-75
2022/11/25 09:24:19;;;;;;;16.77;9.35;;;;;;;;;;5114438;28;20097;-75
2022/11/25 09:26:48;;;;;;;13.65;9.90;;;;;;;;;;5114379;28;20051;-73
2022/11/25 09:29:15;;;;;;;15.77;9.73;;;;;;;;;;5114219;28;20047;-75
2022/11/25 09:31:43;;;;;;;14.30;10.07;;;;;;;;;;5114590;28;20043;-75
2022/11/25 09:34:10;;;;;;;19.27;10.48;;;;;;;;;;5114243;28;20039;-75
2022/11/25 09:36:38;;;;;;;13.80;9.35;;;;;;;;;;5114235;28;20112;-75
2022/11/25 09:39:05;;;;;;;14.63;10.57;;;;;;;;;;5114108;28;20110;-75
2022/11/25 09:47:24;;;;;;;15.60;10.75;;;;;;;;;;5113942;28;20049;-74
2022/11/25 09:50:24;;;;;;;17.42;11.30;;;;;;;;;;5095336;28;20512;-74
2022/11/25 09:53:00;;;;;;;16.48;10.63;;;;;;;;;;5058811;28;20063;-74
2022/11/25 09:55:30;;;;;;;17.30;11.90;;;;;;;;;;5113815;28;20046;-74
2022/11/25 09:57:57;;;;;;;14.70;10.25;;;;;;;;;;5113669;28;20049;-74
2022/11/25 10:00:37;;;;;;;14.05;9.93;;;;;;;;;;5113557;28;20100;-74
2022/11/25 10:03:08;;;;;;;16.80;9.52;;;;;;;;;;5113547;28;20381;-74
2022/11/25 10:05:46;;;;;;;12.13;9.15;;;;;;;;;;5113362;28;20066;-74
2022/11/25 10:08:21;;;;;;;13.38;9.57;;;;;;;;;;5113556;28;20486;-74
2022/11/25 10:10:59;;;;;;;15.88;9.63;;;;;;;;;;5113438;28;20074;-73
2022/11/25 10:13:46;;;;;;;11.73;8.95;;;;;;;;;;5113417;28;20086;-74
2022/11/25 10:16:39;;;;;;;15.00;8.95;;;;;;;;;;5113337;28;20050;-74
2022/11/25 10:19:16;;;;;;;12.85;8.70;;;;;;;;;;5075652;28;20112;-74
2022/11/25 10:21:45;;;;;;;13.82;9.13;;;;;;;;;;5113101;28;20718;-74
2022/11/25 10:24:14;;;;;;;15.20;9.63;;;;;;;;;;5113236;28;20039;-74
2022/11/25 10:26:43;;;;;;;14.20;8.88;;;;;;;;;;5113233;28;20071;-75
2022/11/25 10:29:22;;;;;;;15.70;9.35;;;;;;;;;;5113093;28;20078;-74
2022/11/25 10:31:52;;;;;;;13.27;9.25;;;;;;;;;;5113139;28;20417;-74
2022/11/25 10:34:25;;;;;;;14.90;10.05;;;;;;;;;;5113154;28;20039;-74
2022/11/25 10:36:54;;;;;;;16.65;9.75;;;;;;;;;;5113092;28;20128;-74
2022/11/25 10:39:23;;;;;;;11.60;8.65;;;;;;;;;;5112984;28;20058;-74
2022/11/25 10:42:26;;;;;;;13.82;8.77;;;;;;;;;;5112997;28;20561;-74
2022/11/25 10:44:54;;;;;;;13.90;9.13;;;;;;;;;;5010561;28;20046;-75
2022/11/25 10:47:24;;;;;;;12.73;8.70;;;;;;;;;;5094463;28;20052;-74
2022/11/25 10:50:04;;;;;;;10.70;6.93;;;;;;;;;;5112800;28;20059;-74
2022/11/25 10:52:35;;;;;;;12.98;7.45;;;;;;;;;;5112925;28;20042;-74
2022/11/25 10:55:16;;;;;;;11.75;8.05;;;;;;;;;;5112881;28;20072;-72
2022/11/25 10:57:44;;;;;;;10.10;6.88;;;;;;;;;;5113019;28;20051;-74
2022/11/25 11:00:26;;;;;;;21.02;7.50;;;;;;;;;;5112747;28;20447;-73
2022/11/25 11:02:54;;;;;;;10.02;7.07;;;;;;;;;;5115070;28;20043;-74
2022/11/25 11:05:23;;;;;;;13.23;7.25;;;;;;;;;;5098930;28;20039;-74
2022/11/25 11:08:06;;;;;;;10.15;7.70;;;;;;;;;;5117318;28;20499;-73
2022/11/25 11:10:34;;;;;;;10.73;6.97;;;;;;;;;;5116773;28;20092;-74
2022/11/25 11:13:01;;;;;;;9.98;6.63;;;;;;;;;;5117008;28;20043;-74
2022/11/25 11:15:31;;;;;;;10.45;6.95;;;;;;;;;;5116573;28;20051;-74
2022/11/25 11:18:00;;;;;;;9.57;6.90;;;;;;;;;;5116740;28;20047;-74
2022/11/25 11:20:28;;;;;;;13.38;7.85;;;;;;;;;;5116713;28;20055;-73
2022/11/25 11:23:04;;;;;;;13.15;8.98;;;;;;;;;;5116511;28;20038;-75
2022/11/25 11:25:39;;;;;;;13.40;8.38;;;;;;;;;;5116712;28;20081;-75
2022/11/25 11:28:25;;;;;;;18.55;10.10;;;;;;;;;;5098109;28;20039;-75
2022/11/25 11:30:58;;;;;;;11.88;7.82;;;;;;;;;;5116352;28;20118;-76
2022/11/25 11:33:36;;;;;;;10.80;7.43;;;;;;;;;;5081550;28;20066;-75
2022/11/25 11:36:04;;;;;;;9.73;6.93;;;;;;;;;;5116752;28;20150;-75
2022/11/25 11:38:34;;;;;;;13.02;8.10;;;;;;;;;;5098257;28;20397;-75
2022/11/25 11:41:17;;;;;;;13.57;9.80;;;;;;;;;;5116260;28;20047;-75
2022/11/25 11:43:48;;;;;;;12.32;7.85;;;;;;;;;;5116273;28;20078;-75
2022/11/25 11:46:15;;;;;;;13.50;8.15;;;;;;;;;;5116077;28;20040;-75
2022/11/25 11:49:02;;;;;;;13.38;8.13;;;;;;;;;;5116209;28;20039;-75
2022/11/25 11:51:44;;;;;;;17.05;11.70;;;;;;;;;;5116292;28;20054;-75
2022/11/25 11:54:20;;;;;;;15.32;11.27;;;;;;;;;;5116228;28;20050;-75
2022/11/25 11:56:54;;;;;;;14.15;10.95;;;;;;;;;;5116183;28;20384;-74
2022/11/25 11:59:34;;;;;;;12.07;8.18;;;;;;;;;;5097792;28;20043;-75
2022/11/25 12:02:02;;;;;;;12.70;8.27;;;;;;;;;;5115995;28;20093;-74
2022/11/25 12:04:35;;;;;;;12.27;8.10;;;;;;;;;;5115867;28;20044;-75
2022/11/25 12:07:23;;;;;;;15.18;10.38;;;;;;;;;;5116064;28;20443;-75
2022/11/25 12:10:11;;;;;;;15.05;10.82;;;;;;;;;;5065299;28;20058;-75
2022/11/25 12:12:41;;;;;;;11.38;8.32;;;;;;;;;;5099059;28;20075;-76
2022/11/25 12:15:20;;;;;;;15.18;9.70;;;;;;;;;;5115870;28;20389;-75
2022/11/25 12:18:00;;;;;;;12.15;8.00;;;;;;;;;;5115725;28;20100;-75
2022/11/25 12:20:36;;;;;;;11.65;7.82;;;;;;;;;;5115853;28;20397;-75
2022/11/25 12:23:22;;;;;;;14.00;8.68;;;;;;;;;;5115625;28;20489;-75
2022/11/25 12:25:54;;;;;;;17.92;8.48;;;;;;;;;;5115808;28;20046;-75
2022/11/25 12:28:25;;;;;;;12.75;8.13;;;;;;;;;;5115501;28;20047;-75
2022/11/25 12:31:13;;;;;;;12.25;8.50;;;;;;;;;;5115449;28;20182;-75
2022/11/25 12:33:41;;;;;;;13.40;8.38;;;;;;;;;;5115284;28;20043;-75
2022/11/25 12:36:20;;;;;;;14.93;8.75;;;;;;;;;;5115448;28;20044;-75
2022/11/25 12:38:54;;;;;;;16.42;9.25;;;;;;;;;;5115296;28;20036;-75
2022/11/25 12:41:22;;;;;;;14.18;8.52;;;;;;;;;;5115366;28;20036;-75
2022/11/25 12:43:52;;;;;;;14.25;8.13;;;;;;;;;;5115231;28;20055;-75
2022/11/25 12:46:38;;;;;;;14.73;7.57;;;;;;;;;;5115107;28;20093;-75
2022/11/25 12:49:07;;;;;;;11.35;7.78;;;;;;;;;;5096776;28;20134;-75
2022/11/25 12:51:35;;;;;;;14.27;8.38;;;;;;;;;;5114930;28;20055;-75
2022/11/25 12:54:02;;;;;;;13.77;7.78;;;;;;;;;;5114922;28;20164;-74
2022/11/25 12:56:48;;;;;;;11.43;7.60;;;;;;;;;;5114912;28;20039;-74
2022/11/25 12:59:35;;;;;;;9.80;6.78;;;;;;;;;;5114929;28;20448;-74
2022/11/25 13:02:05;;;;;;;12.82;7.80;;;;;;;;;;5114891;28;20036;-74
2022/11/25 13:04:42;;;;;;;13.73;7.32;;;;;;;;;;5114497;28;20040;-75
2022/11/25 13:07:26;;;;;;;11.15;7.22;;;;;;;;;;5114427;28;20482;-74
2022/11/25 13:09:54;;;;;;;11.43;6.97;;;;;;;;;;5114644;28;20108;-75
2022/11/25 13:12:54;;;;;;;11.32;7.55;;;;;;;;;;5114370;28;20048;-75
2022/11/25 13:15:25;;;;;;;11.65;7.13;;;;;;;;;;5042559;28;20382;-76
2022/11/25 13:18:01;;;;;;;173.27;109.85;;;;;;;;;;5114574;28;20615;-75
2022/11/25 13:20:29;;;;;;;14.70;9.13;;;;;;;;;;5096455;28;20437;-76
2022/11/25 13:23:03;;;;;;;11.43;7.25;;;;;;;;;;5114325;28;20042;-76
2022/11/25 13:25:31;;;;;;;11.73;7.28;;;;;;;;;;5113683;28;20556;-76
2022/11/25 13:27:59;;;;;;;11.23;7.47;;;;;;;;;;5114326;28;20092;-76
2022/11/25 13:30:32;;;;;;;10.27;6.82;;;;;;;;;;5114370;28;20043;-75
2022/11/25 13:33:20;;;;;;;10.68;7.45;;;;;;;;;;5114660;28;20063;-76
2022/11/25 13:35:56;;;;;;;10.98;7.15;;;;;;;;;;5063568;28;20051;-75
2022/11/25 13:38:30;;;;;;;9.93;7.13;;;;;;;;;;5114057;28;20050;-75
2022/11/25 13:41:23;;;;;;;14.98;9.50;;;;;;;;;;5114122;28;20040;-75
2022/11/25 13:44:10;;;;;;;17.10;10.95;;;;;;;;;;5095854;28;20042;-75
2022/11/25 13:46:42;;;;;;;12.23;7.85;;;;;;;;;;5113879;28;20115;-75
2022/11/25 13:49:28;;;;;;;12.95;7.80;;;;;;;;;;5113911;28;20105;-75
2022/11/25 13:52:04;;;;;;;11.02;7.50;;;;;;;;;;5095747;28;20496;-75
2022/11/25 13:54:34;;;;;;;12.15;7.88;;;;;;;;;;5113875;28;20405;-75
2022/11/25 13:57:11;;;;;;;12.02;7.85;;;;;;;;;;5113816;28;20043;-75
2022/11/25 13:59:42;;;;;;;11.80;8.00;;;;;;;;;;5113581;28;20493;-75
2022/11/25 14:02:24;;;;;;;10.48;6.85;;;;;;;;;;5113732;28;20043;-76
2022/11/25 14:04:58;;;;;;;15.70;8.40;;;;;;;;;;5113614;28;20122;-74
2022/11/25 14:07:34;;;;;;;15.13;8.63;;;;;;;;;;5113393;28;20039;-75
2022/11/25 14:10:08;;;;;;;13.52;8.68;;;;;;;;;;5113569;28;20044;-75
2022/11/25 14:12:47;;;;;;;14.82;8.45;;;;;;;;;;5113266;28;20062;-75
2022/11/25 14:15:24;;;;;;;13.18;8.50;;;;;;;;;;5095057;28;20469;-75
2022/11/25 14:18:11;;;;;;;15.50;7.82;;;;;;;;;;5095312;28;20051;-75
2022/11/25 14:20:47;;;;;;;14.52;8.32;;;;;;;;;;5113328;28;20123;-75
2022/11/25 14:23:15;;;;;;;13.98;8.80;;;;;;;;;;5113579;28;20043;-74
2022/11/25 14:25:52;;;;;;;12.95;8.73;;;;;;;;;;5113379;28;20036;-75
2022/11/25 14:28:33;;;;;;;15.82;9.75;;;;;;;;;;5113286;28;20043;-75
2022/11/25 14:31:05;;;;;;;14.95;8.60;;;;;;;;;;5113116;28;20546;-74
2022/11/25 14:33:34;;;;;;;13.93;8.68;;;;;;;;;;5112864;28;20043;-75
2022/11/25 14:36:09;;;;;;;16.60;9.00;;;;;;;;;;5112701;28;20558;-75
2022/11/25 14:38:36;;;;;;;15.13;9.10;;;;;;;;;;5112709;28;20100;-75
2022/11/25 14:41:06;;;;;;;17.30;9.02;;;;;;;;;;5112677;28;20315;-74
2022/11/25 14:43:38;;;;;;;12.52;9.27;;;;;;;;;;5112600;28;20035;-76
2022/11/25 14:46:09;;;;;;;14.40;8.50;;;;;;;;;;5112301;28;20050;-76
2022/11/25 14:48:37;;;;;;;14.13;8.65;;;;;;;;;;5112522;28;20043;-78
2022/11/25 14:51:09;;;;;;;17.15;9.15;;;;;;;;;;5112978;28;20061;-75
2022/11/25 14:53:44;;;;;;;18.17;10.88;;;;;;;;;;5112679;28;20130;-75
2022/11/25 14:56:16;;;;;;;15.05;9.50;;;;;;;;;;5112330;28;20042;-69
2022/11/25 14:58:47;;;;;;;16.40;9.73;;;;;;;;;;5112389;28;20085;-71
2022/11/25 15:01:19;;;;;;;16.02;10.50;;;;;;;;;;5094692;28;20074;-71
2022/11/25 15:03:47;;;;;;;17.77;10.45;;;;;;;;;;5112663;28;20042;-71
2022/11/25 15:06:18;;;;;;;17.58;10.27;;;;;;;;;;5112682;28;20050;-71
2022/11/25 15:08:54;;;;;;;21.92;12.80;;;;;;;;;;5112926;28;20378;-71
2022/11/25 15:11:23;;;;;;;19.23;11.30;;;;;;;;;;5112361;28;20118;-71
2022/11/25 15:13:50;;;;;;;18.55;11.93;;;;;;;;;;5112793;28;20047;-71
2022/11/25 15:16:19;;;;;;;19.83;12.73;;;;;;;;;;5094598;28;20040;-70
2022/11/25 15:18:47;;;;;;;19.73;12.32;;;;;;;;;;5112817;28;20046;-70